sensor_id;sensor_type;location;lat;lon;timestamp;pressure;altitude;pressure_sealevel;temperature;humidity
56582;BME280;42463;52.214;21.238;2023-02-20T00:00:47;100431.63;;;2.44;65.84
56582;BME280;42463;52.214;21.238;2023-02-20T00:03:16;100428.66;;;2.45;65.58
56582;BME280;42463;52.214;21.238;2023-02-20T00:05:41;100421.09;;;2.45;65.68
56582;BME280;42463;52.214;21.238;2023-02-20T00:08:13;100417.22;;;2.45;66.18
56582;BME280;42463;52.214;21.238;2023-02-20T00:10:38;100406.83;;;2.40;66.50
56582;BME280;42463;52.214;21.238;2023-02-20T00:13:16;100406.02;;;2.35;66.42
56582;BME280;42463;52.214;21.238;2023-02-20T00:15:48;100405.52;;;2.31;66.65
56582;BME280;42463;52.214;21.238;2023-02-20T00:18:18;100407.06;;;2.26;66.85
56582;BME280;42463;52.214;21.238;2023-02-20T00:20:53;100396.67;;;2.20;67.03
56582;BME280;42463;52.214;21.238;2023-02-20T00:23:29;100395.60;;;2.19;66.85
56582;BME280;42463;52.214;21.238;2023-02-20T00:25:55;100391.92;;;2.17;67.08
56582;BME280;42463;52.214;21.238;2023-02-20T00:28:23;100389.21;;;2.16;66.67
56582;BME280;42463;52.214;21.238;2023-02-20T00:30:57;100389.50;;;2.18;66.95
56582;BME280;42463;52.214;21.238;2023-02-20T00:33:35;100391.15;;;2.20;66.70
56582;BME280;42463;52.214;21.238;2023-02-20T00:36:21;100383.95;;;2.22;66.43
56582;BME280;42463;52.214;21.238;2023-02-20T00:38:59;100385.98;;;2.22;66.53
56582;BME280;42463;52.214;21.238;2023-02-20T00:41:44;100391.70;;;2.23;66.13
56582;BME280;42463;52.214;21.238;2023-02-20T00:44:28;100393.76;;;2.24;65.55
56582;BME280;42463;52.214;21.238;2023-02-20T00:47:13;100398.34;;;2.27;65.48
56582;BME280;42463;52.214;21.238;2023-02-20T00:49:58;100398.95;;;2.35;65.15
56582;BME280;42463;52.214;21.238;2023-02-20T00:52:41;100403.16;;;2.37;64.86
56582;BME280;42463;52.214;21.238;2023-02-20T00:55:26;100404.51;;;2.36;64.55
56582;BME280;42463;52.214;21.238;2023-02-20T00:58:09;100400.88;;;2.38;64.24
56582;BME280;42463;52.214;21.238;2023-02-20T01:00:54;100395.58;;;2.37;64.46
56582;BME280;42463;52.214;21.238;2023-02-20T01:03:39;100397.10;;;2.38;64.10
56582;BME280;42463;52.214;21.238;2023-02-20T01:06:24;100388.89;;;2.33;63.78
56582;BME280;42463;52.214;21.238;2023-02-20T01:09:09;100387.94;;;2.32;63.79
56582;BME280;42463;52.214;21.238;2023-02-20T01:11:54;100387.98;;;2.35;63.75
56582;BME280;42463;52.214;21.238;2023-02-20T01:14:34;100385.98;;;2.37;63.67
56582;BME280;42463;52.214;21.238;2023-02-20T01:17:19;100383.66;;;2.37;63.00
56582;BME280;42463;52.214;21.238;2023-02-20T01:19:57;100388.49;;;2.38;62.93
56582;BME280;42463;52.214;21.238;2023-02-20T01:22:21;100385.90;;;2.39;62.67
56582;BME280;42463;52.214;21.238;2023-02-20T01:25:08;100385.08;;;2.38;62.84
56582;BME280;42463;52.214;21.238;2023-02-20T01:27:38;100380.30;;;2.39;62.83
56582;BME280;42463;52.214;21.238;2023-02-20T01:30:07;100370.83;;;2.41;62.65
56582;BME280;42463;52.214;21.238;2023-02-20T01:32:32;100370.42;;;2.42;62.56
56582;BME280;42463;52.214;21.238;2023-02-20T01:35:01;100365.69;;;2.43;62.79
56582;BME280;42463;52.214;21.238;2023-02-20T01:37:46;100370.14;;;2.46;62.49
56582;BME280;42463;52.214;21.238;2023-02-20T01:40:22;100363.64;;;2.48;62.42
56582;BME280;42463;52.214;21.238;2023-02-20T01:42:57;100365.66;;;2.49;62.28
56582;BME280;42463;52.214;21.238;2023-02-20T01:45:35;100370.89;;;2.50;62.34
56582;BME280;42463;52.214;21.238;2023-02-20T01:48:11;100372.58;;;2.49;62.49
56582;BME280;42463;52.214;21.238;2023-02-20T01:50:47;100377.02;;;2.46;62.40
56582;BME280;42463;52.214;21.238;2023-02-20T01:53:34;100369.11;;;2.44;62.50
56582;BME280;42463;52.214;21.238;2023-02-20T01:56:19;100370.67;;;2.43;62.18
56582;BME280;42463;52.214;21.238;2023-02-20T01:59:02;100367.50;;;2.42;62.28
56582;BME280;42463;52.214;21.238;2023-02-20T02:01:50;100359.14;;;2.43;62.39
56582;BME280;42463;52.214;21.238;2023-02-20T02:04:37;100360.26;;;2.44;62.27
56582;BME280;42463;52.214;21.238;2023-02-20T02:07:24;100359.64;;;2.48;62.45
56582;BME280;42463;52.214;21.238;2023-02-20T02:10:12;100362.98;;;2.51;62.51
56582;BME280;42463;52.214;21.238;2023-02-20T02:12:48;100358.41;;;2.55;62.32
56582;BME280;42463;52.214;21.238;2023-02-20T02:15:34;100353.17;;;2.54;62.78
56582;BME280;42463;52.214;21.238;2023-02-20T02:18:34;100353.43;;;2.56;62.55
56582;BME280;42463;52.214;21.238;2023-02-20T02:21:35;100346.30;;;2.57;62.38
56582;BME280;42463;52.214;21.238;2023-02-20T02:27:47;100349.08;;;2.61;62.29
56582;BME280;42463;52.214;21.238;2023-02-20T02:30:36;100349.56;;;2.62;62.12
56582;BME280;42463;52.214;21.238;2023-02-20T02:33:36;100348.83;;;2.60;62.16
56582;BME280;42463;52.214;21.238;2023-02-20T02:36:21;100348.30;;;2.60;62.25
56582;BME280;42463;52.214;21.238;2023-02-20T02:39:04;100349.98;;;2.63;62.04
56582;BME280;42463;52.214;21.238;2023-02-20T02:41:47;100351.30;;;2.63;62.22
56582;BME280;42463;52.214;21.238;2023-02-20T02:44:36;100349.53;;;2.61;62.32
56582;BME280;42463;52.214;21.238;2023-02-20T02:47:28;100346.11;;;2.62;62.47
56582;BME280;42463;52.214;21.238;2023-02-20T02:50:17;100341.21;;;2.64;62.61
56582;BME280;42463;52.214;21.238;2023-02-20T02:53:06;100334.83;;;2.64;62.47
56582;BME280;42463;52.214;21.238;2023-02-20T02:55:52;100341.58;;;2.66;62.36
56582;BME280;42463;52.214;21.238;2023-02-20T02:58:35;100353.13;;;2.71;62.21
56582;BME280;42463;52.214;21.238;2023-02-20T03:01:21;100351.18;;;2.70;62.25
56582;BME280;42463;52.214;21.238;2023-02-20T03:04:07;100352.50;;;2.68;62.19
56582;BME280;42463;52.214;21.238;2023-02-20T03:06:57;100353.78;;;2.71;62.48
56582;BME280;42463;52.214;21.238;2023-02-20T03:09:46;100349.50;;;2.72;62.27
56582;BME280;42463;52.214;21.238;2023-02-20T03:12:32;100343.73;;;2.70;61.96
56582;BME280;42463;52.214;21.238;2023-02-20T03:15:03;100347.35;;;2.71;62.16
56582;BME280;42463;52.214;21.238;2023-02-20T03:17:53;100352.14;;;2.71;62.38
56582;BME280;42463;52.214;21.238;2023-02-20T03:20:23;100355.64;;;2.70;62.63
56582;BME280;42463;52.214;21.238;2023-02-20T03:22:50;100353.29;;;2.71;62.21
56582;BME280;42463;52.214;21.238;2023-02-20T03:25:19;100359.14;;;2.72;62.48
56582;BME280;42463;52.214;21.238;2023-02-20T03:27:48;100353.04;;;2.72;62.20
56582;BME280;42463;52.214;21.238;2023-02-20T03:30:18;100346.20;;;2.77;62.42
56582;BME280;42463;52.214;21.238;2023-02-20T03:32:48;100346.00;;;2.78;61.97
56582;BME280;42463;52.214;21.238;2023-02-20T03:35:33;100344.60;;;2.74;61.82
56582;BME280;42463;52.214;21.238;2023-02-20T03:38:17;100337.91;;;2.71;62.01
56582;BME280;42463;52.214;21.238;2023-02-20T03:41:04;100342.13;;;2.70;62.19
56582;BME280;42463;52.214;21.238;2023-02-20T03:43:54;100352.42;;;2.69;62.26
56582;BME280;42463;52.214;21.238;2023-02-20T03:46:41;100345.54;;;2.66;62.39
56582;BME280;42463;52.214;21.238;2023-02-20T03:49:33;100345.58;;;2.66;62.67
56582;BME280;42463;52.214;21.238;2023-02-20T03:52:21;100349.95;;;2.66;62.43
56582;BME280;42463;52.214;21.238;2023-02-20T03:55:06;100341.95;;;2.65;62.35
56582;BME280;42463;52.214;21.238;2023-02-20T03:57:46;100335.88;;;2.59;61.99
56582;BME280;42463;52.214;21.238;2023-02-20T04:00:28;100335.35;;;2.56;62.33
56582;BME280;42463;52.214;21.238;2023-02-20T04:03:09;100336.66;;;2.55;62.77
56582;BME280;42463;52.214;21.238;2023-02-20T04:05:41;100334.81;;;2.54;62.86
56582;BME280;42463;52.214;21.238;2023-02-20T04:08:15;100335.67;;;2.50;62.67
56582;BME280;42463;52.214;21.238;2023-02-20T04:10:46;100340.57;;;2.47;62.99
56582;BME280;42463;52.214;21.238;2023-02-20T04:13:15;100335.83;;;2.45;62.85
56582;BME280;42463;52.214;21.238;2023-02-20T04:15:44;100329.27;;;2.47;62.86
56582;BME280;42463;52.214;21.238;2023-02-20T04:18:12;100332.38;;;2.51;62.93
56582;BME280;42463;52.214;21.238;2023-02-20T04:20:38;100327.55;;;2.49;62.58
56582;BME280;42463;52.214;21.238;2023-02-20T04:23:15;100323.31;;;2.48;62.88
56582;BME280;42463;52.214;21.238;2023-02-20T04:25:43;100317.09;;;2.49;62.85
56582;BME280;42463;52.214;21.238;2023-02-20T04:28:11;100322.08;;;2.51;62.74
56582;BME280;42463;52.214;21.238;2023-02-20T04:30:57;100318.82;;;2.52;62.95
56582;BME280;42463;52.214;21.238;2023-02-20T04:33:22;100325.26;;;2.54;62.82
56582;BME280;42463;52.214;21.238;2023-02-20T04:35:53;100322.78;;;2.54;62.69
56582;BME280;42463;52.214;21.238;2023-02-20T04:38:23;100320.77;;;2.53;62.86
56582;BME280;42463;52.214;21.238;2023-02-20T04:40:48;100322.54;;;2.53;62.67
56582;BME280;42463;52.214;21.238;2023-02-20T04:43:15;100314.46;;;2.51;62.49
56582;BME280;42463;52.214;21.238;2023-02-20T04:46:00;100306.71;;;2.49;62.69
56582;BME280;42463;52.214;21.238;2023-02-20T04:48:43;100308.40;;;2.48;62.73
56582;BME280;42463;52.214;21.238;2023-02-20T04:51:28;100301.59;;;2.47;62.92
56582;BME280;42463;52.214;21.238;2023-02-20T04:54:11;100295.54;;;2.44;63.10
56582;BME280;42463;52.214;21.238;2023-02-20T04:56:56;100296.58;;;2.46;63.25
56582;BME280;42463;52.214;21.238;2023-02-20T04:59:41;100296.82;;;2.45;63.19
56582;BME280;42463;52.214;21.238;2023-02-20T05:02:26;100293.73;;;2.43;63.15
56582;BME280;42463;52.214;21.238;2023-02-20T05:05:18;100289.94;;;2.44;63.53
56582;BME280;42463;52.214;21.238;2023-02-20T05:08:06;100294.39;;;2.45;63.35
56582;BME280;42463;52.214;21.238;2023-02-20T05:10:51;100295.17;;;2.49;63.57
56582;BME280;42463;52.214;21.238;2023-02-20T05:13:35;100288.87;;;2.44;63.61
56582;BME280;42463;52.214;21.238;2023-02-20T05:16:19;100282.77;;;2.42;63.60
56582;BME280;42463;52.214;21.238;2023-02-20T05:19:04;100281.66;;;2.44;64.17
56582;BME280;42463;52.214;21.238;2023-02-20T05:21:50;100279.20;;;2.45;63.72
56582;BME280;42463;52.214;21.238;2023-02-20T05:24:53;100278.75;;;2.46;63.98
56582;BME280;42463;52.214;21.238;2023-02-20T05:27:46;100273.22;;;2.49;63.96
56582;BME280;42463;52.214;21.238;2023-02-20T05:30:31;100269.40;;;2.50;63.98
56582;BME280;42463;52.214;21.238;2023-02-20T05:33:15;100281.71;;;2.50;64.06
56582;BME280;42463;52.214;21.238;2023-02-20T05:36:00;100280.52;;;2.53;64.03
56582;BME280;42463;52.214;21.238;2023-02-20T05:38:45;100282.58;;;2.53;64.00
56582;BME280;42463;52.214;21.238;2023-02-20T05:41:32;100281.14;;;2.55;64.11
56582;BME280;42463;52.214;21.238;2023-02-20T05:44:16;100282.41;;;2.61;64.25
56582;BME280;42463;52.214;21.238;2023-02-20T05:47:01;100277.73;;;2.68;64.20
56582;BME280;42463;52.214;21.238;2023-02-20T05:49:30;100267.37;;;2.69;64.14
56582;BME280;42463;52.214;21.238;2023-02-20T05:52:16;100264.86;;;2.67;64.12
56582;BME280;42463;52.214;21.238;2023-02-20T05:54:59;100255.71;;;2.69;64.13
56582;BME280;42463;52.214;21.238;2023-02-20T05:57:44;100254.85;;;2.75;64.32
56582;BME280;42463;52.214;21.238;2023-02-20T06:00:28;100250.60;;;2.77;63.85
56582;BME280;42463;52.214;21.238;2023-02-20T06:03:14;100245.70;;;2.76;64.31
56582;BME280;42463;52.214;21.238;2023-02-20T06:05:59;100240.79;;;2.78;64.38
56582;BME280;42463;52.214;21.238;2023-02-20T06:08:45;100245.16;;;2.80;64.32
56582;BME280;42463;52.214;21.238;2023-02-20T06:11:30;100242.10;;;2.83;64.34
56582;BME280;42463;52.214;21.238;2023-02-20T06:14:16;100243.13;;;2.82;64.64
56582;BME280;42463;52.214;21.238;2023-02-20T06:17:02;100248.33;;;2.85;64.51
56582;BME280;42463;52.214;21.238;2023-02-20T06:19:45;100241.98;;;2.88;64.40
56582;BME280;42463;52.214;21.238;2023-02-20T06:22:30;100242.05;;;2.90;64.26
56582;BME280;42463;52.214;21.238;2023-02-20T06:25:15;100236.45;;;2.86;64.22
56582;BME280;42463;52.214;21.238;2023-02-20T06:28:00;100235.54;;;2.89;64.17
56582;BME280;42463;52.214;21.238;2023-02-20T06:30:45;100236.11;;;2.91;63.98
56582;BME280;42463;52.214;21.238;2023-02-20T06:33:30;100232.73;;;2.92;63.97
56582;BME280;42463;52.214;21.238;2023-02-20T06:36:22;100230.41;;;2.94;64.17
56582;BME280;42463;52.214;21.238;2023-02-20T06:39:09;100229.55;;;2.97;64.33
56582;BME280;42463;52.214;21.238;2023-02-20T06:41:54;100230.08;;;2.99;64.33
56582;BME280;42463;52.214;21.238;2023-02-20T06:44:36;100219.36;;;3.03;64.04
56582;BME280;42463;52.214;21.238;2023-02-20T06:47:04;100226.15;;;3.06;64.03
56582;BME280;42463;52.214;21.238;2023-02-20T06:49:30;100218.47;;;3.08;64.06
56582;BME280;42463;52.214;21.238;2023-02-20T06:52:14;100214.39;;;3.12;64.06
56582;BME280;42463;52.214;21.238;2023-02-20T06:54:58;100212.88;;;3.14;64.08
56582;BME280;42463;52.214;21.238;2023-02-20T06:57:44;100205.20;;;3.19;64.36
56582;BME280;42463;52.214;21.238;2023-02-20T07:00:29;100203.73;;;3.22;64.01
56582;BME280;42463;52.214;21.238;2023-02-20T07:03:15;100206.48;;;3.25;64.05
56582;BME280;42463;52.214;21.238;2023-02-20T07:05:42;100206.23;;;3.27;64.03
56582;BME280;42463;52.214;21.238;2023-02-20T07:08:08;100204.16;;;3.29;64.03
56582;BME280;42463;52.214;21.238;2023-02-20T07:10:53;100207.54;;;3.32;63.82
56582;BME280;42463;52.214;21.238;2023-02-20T07:13:20;100213.84;;;3.34;63.92
56582;BME280;42463;52.214;21.238;2023-02-20T07:16:06;100201.52;;;3.41;64.26
56582;BME280;42463;52.214;21.238;2023-02-20T07:18:51;100190.07;;;3.47;64.24
56582;BME280;42463;52.214;21.238;2023-02-20T07:21:37;100186.48;;;3.52;64.09
56582;BME280;42463;52.214;21.238;2023-02-20T07:24:15;100179.11;;;3.60;64.06
56582;BME280;42463;52.214;21.238;2023-02-20T07:27:00;100174.53;;;3.72;64.28
56582;BME280;42463;52.214;21.238;2023-02-20T07:29:46;100180.38;;;3.81;64.00
56582;BME280;42463;52.214;21.238;2023-02-20T07:32:25;100175.52;;;3.83;63.60
56582;BME280;42463;52.214;21.238;2023-02-20T07:35:10;100179.21;;;3.89;63.53
56582;BME280;42463;52.214;21.238;2023-02-20T07:37:55;100176.23;;;3.92;63.79
56582;BME280;42463;52.214;21.238;2023-02-20T07:40:40;100181.85;;;3.96;63.81
56582;BME280;42463;52.214;21.238;2023-02-20T07:43:25;100180.75;;;4.01;63.71
56582;BME280;42463;52.214;21.238;2023-02-20T07:46:10;100180.73;;;4.03;63.65
56582;BME280;42463;52.214;21.238;2023-02-20T07:48:55;100175.34;;;4.07;63.56
56582;BME280;42463;52.214;21.238;2023-02-20T07:51:40;100173.95;;;4.09;63.48
56582;BME280;42463;52.214;21.238;2023-02-20T07:54:26;100163.31;;;4.13;63.84
56582;BME280;42463;52.214;21.238;2023-02-20T07:57:11;100147.52;;;4.18;63.78
56582;BME280;42463;52.214;21.238;2023-02-20T07:59:58;100141.77;;;4.24;63.80
56582;BME280;42463;52.214;21.238;2023-02-20T08:02:35;100128.93;;;4.29;63.53
56582;BME280;42463;52.214;21.238;2023-02-20T08:05:05;100125.09;;;4.28;63.25
56582;BME280;42463;52.214;21.238;2023-02-20T08:07:32;100113.89;;;4.29;63.84
56582;BME280;42463;52.214;21.238;2023-02-20T08:10:19;100112.77;;;4.32;63.95
56582;BME280;42463;52.214;21.238;2023-02-20T08:13:05;100113.64;;;4.38;63.91
56582;BME280;42463;52.214;21.238;2023-02-20T08:15:32;100098.99;;;4.45;64.20
56582;BME280;42463;52.214;21.238;2023-02-20T08:17:57;100090.94;;;4.47;63.72
56582;BME280;42463;52.214;21.238;2023-02-20T08:20:25;100094.61;;;4.53;63.91
56582;BME280;42463;52.214;21.238;2023-02-20T08:23:16;100092.31;;;4.55;64.10
56582;BME280;42463;52.214;21.238;2023-02-20T08:25:41;100081.65;;;4.55;63.36
56582;BME280;42463;52.214;21.238;2023-02-20T08:28:14;100080.76;;;4.57;63.66
56582;BME280;42463;52.214;21.238;2023-02-20T08:31:04;100077.69;;;4.62;64.00
56582;BME280;42463;52.214;21.238;2023-02-20T08:33:32;100075.45;;;4.66;63.65
56582;BME280;42463;52.214;21.238;2023-02-20T08:36:17;100072.98;;;4.70;63.28
56582;BME280;42463;52.214;21.238;2023-02-20T08:39:02;100069.86;;;4.74;64.01
56582;BME280;42463;52.214;21.238;2023-02-20T08:41:27;100065.05;;;4.82;63.61
56582;BME280;42463;52.214;21.238;2023-02-20T08:43:53;100056.44;;;4.89;63.83
56582;BME280;42463;52.214;21.238;2023-02-20T08:46:19;100051.01;;;4.91;63.76
56582;BME280;42463;52.214;21.238;2023-02-20T08:48:45;100048.54;;;4.93;64.08
56582;BME280;42463;52.214;21.238;2023-02-20T08:51:11;100039.20;;;4.93;64.16
56582;BME280;42463;52.214;21.238;2023-02-20T08:53:38;100044.41;;;4.99;64.31
56582;BME280;42463;52.214;21.238;2023-02-20T08:56:04;100038.36;;;4.91;64.67
56582;BME280;42463;52.214;21.238;2023-02-20T08:58:29;100037.40;;;4.81;65.58
56582;BME280;42463;52.214;21.238;2023-02-20T09:00:53;100028.83;;;4.72;66.19
56582;BME280;42463;52.214;21.238;2023-02-20T09:03:18;100031.34;;;4.67;66.20
56582;BME280;42463;52.214;21.238;2023-02-20T09:05:44;100027.80;;;4.59;66.74
56582;BME280;42463;52.214;21.238;2023-02-20T09:08:09;100018.14;;;4.54;67.90
56582;BME280;42463;52.214;21.238;2023-02-20T09:10:34;100010.66;;;4.46;68.15
56582;BME280;42463;52.214;21.238;2023-02-20T09:12:59;99997.55;;;4.37;68.44
56582;BME280;42463;52.214;21.238;2023-02-20T09:15:25;99981.15;;;4.31;69.10
56582;BME280;42463;52.214;21.238;2023-02-20T09:17:51;99973.60;;;4.26;69.87
56582;BME280;42463;52.214;21.238;2023-02-20T09:20:17;99961.39;;;4.25;69.98
56582;BME280;42463;52.214;21.238;2023-02-20T09:22:46;99951.53;;;4.26;70.51
56582;BME280;42463;52.214;21.238;2023-02-20T09:25:14;99947.42;;;4.25;71.13
56582;BME280;42463;52.214;21.238;2023-02-20T09:27:39;99943.52;;;4.23;70.81
56582;BME280;42463;52.214;21.238;2023-02-20T09:30:06;99941.92;;;4.22;71.59
56582;BME280;42463;52.214;21.238;2023-02-20T09:32:30;99942.23;;;4.18;71.75
56582;BME280;42463;52.214;21.238;2023-02-20T09:34:55;99941.52;;;4.15;71.53
56582;BME280;42463;52.214;21.238;2023-02-20T09:37:21;99936.00;;;4.13;71.63
56582;BME280;42463;52.214;21.238;2023-02-20T09:39:46;99927.22;;;4.12;71.96
56582;BME280;42463;52.214;21.238;2023-02-20T09:42:22;99907.28;;;4.11;72.40
56582;BME280;42463;52.214;21.238;2023-02-20T09:45:03;99903.71;;;4.13;72.58
56582;BME280;42463;52.214;21.238;2023-02-20T09:47:43;99885.39;;;4.09;73.01
56582;BME280;42463;52.214;21.238;2023-02-20T09:50:23;99877.52;;;4.06;73.26
56582;BME280;42463;52.214;21.238;2023-02-20T09:52:58;99869.34;;;4.04;73.23
56582;BME280;42463;52.214;21.238;2023-02-20T09:55:46;99849.52;;;4.01;73.71
56582;BME280;42463;52.214;21.238;2023-02-20T09:58:39;99838.95;;;3.97;73.77
56582;BME280;42463;52.214;21.238;2023-02-20T10:01:21;99827.23;;;3.94;74.04
56582;BME280;42463;52.214;21.238;2023-02-20T10:03:53;99824.04;;;3.91;74.20
56582;BME280;42463;52.214;21.238;2023-02-20T10:06:39;99821.33;;;3.91;74.13
56582;BME280;42463;52.214;21.238;2023-02-20T10:09:05;99807.52;;;3.84;74.78
56582;BME280;42463;52.214;21.238;2023-02-20T10:11:44;99802.80;;;3.82;75.04
56582;BME280;42463;52.214;21.238;2023-02-20T10:14:28;99797.93;;;3.87;74.85
56582;BME280;42463;52.214;21.238;2023-02-20T10:17:05;99797.90;;;3.89;74.51
56582;BME280;42463;52.214;21.238;2023-02-20T10:19:59;99781.41;;;3.91;74.76
56582;BME280;42463;52.214;21.238;2023-02-20T10:22:51;99778.35;;;3.81;74.27
56582;BME280;42463;52.214;21.238;2023-02-20T10:25:23;99766.37;;;3.73;73.64
56582;BME280;42463;52.214;21.238;2023-02-20T10:28:12;99761.17;;;3.66;74.04
56582;BME280;42463;52.214;21.238;2023-02-20T10:30:40;99749.23;;;3.57;73.77
56582;BME280;42463;52.214;21.238;2023-02-20T10:33:19;99744.94;;;3.51;73.83
56582;BME280;42463;52.214;21.238;2023-02-20T10:36:03;99743.71;;;3.49;73.85
56582;BME280;42463;52.214;21.238;2023-02-20T10:38:37;99740.05;;;3.51;73.78
56582;BME280;42463;52.214;21.238;2023-02-20T10:41:07;99737.35;;;3.44;73.70
56582;BME280;42463;52.214;21.238;2023-02-20T10:43:49;99730.90;;;3.41;73.96
56582;BME280;42463;52.214;21.238;2023-02-20T10:46:41;99725.13;;;3.35;73.96
56582;BME280;42463;52.214;21.238;2023-02-20T10:49:34;99715.55;;;3.32;74.03
56582;BME280;42463;52.214;21.238;2023-02-20T10:52:26;99714.09;;;3.36;74.16
56582;BME280;42463;52.214;21.238;2023-02-20T10:55:16;99714.33;;;3.38;74.54
56582;BME280;42463;52.214;21.238;2023-02-20T10:58:07;99708.90;;;3.36;74.59
56582;BME280;42463;52.214;21.238;2023-02-20T11:00:39;99701.62;;;3.31;74.57
56582;BME280;42463;52.214;21.238;2023-02-20T11:03:08;99690.00;;;3.26;74.76
56582;BME280;42463;52.214;21.238;2023-02-20T11:05:42;99682.04;;;3.27;75.35
56582;BME280;42463;52.214;21.238;2023-02-20T11:08:09;99676.28;;;3.29;75.04
56582;BME280;42463;52.214;21.238;2023-02-20T11:10:57;99659.23;;;3.30;75.09
56582;BME280;42463;52.214;21.238;2023-02-20T11:13:26;99652.39;;;3.26;75.22
56582;BME280;42463;52.214;21.238;2023-02-20T11:15:53;99651.55;;;3.24;75.32
56582;BME280;42463;52.214;21.238;2023-02-20T11:18:21;99646.63;;;3.19;75.39
56582;BME280;42463;52.214;21.238;2023-02-20T11:20:50;99636.61;;;3.19;75.28
56582;BME280;42463;52.214;21.238;2023-02-20T11:23:37;99627.75;;;3.15;75.43
56582;BME280;42463;52.214;21.238;2023-02-20T11:26:23;99612.86;;;3.11;75.68
56582;BME280;42463;52.214;21.238;2023-02-20T11:29:15;99589.80;;;3.11;75.78
56582;BME280;42463;52.214;21.238;2023-02-20T11:31:46;99578.02;;;3.10;75.69
56582;BME280;42463;52.214;21.238;2023-02-20T11:34:18;99565.17;;;3.14;75.73
56582;BME280;42463;52.214;21.238;2023-02-20T11:36:50;99478.66;;;3.12;75.57
56582;BME280;42463;52.214;21.238;2023-02-20T11:39:27;99503.70;;;3.07;75.42
56582;BME280;42463;52.214;21.238;2023-02-20T11:42:14;99517.99;;;3.02;75.71
56582;BME280;42463;52.214;21.238;2023-02-20T11:45:12;99508.05;;;3.02;76.11
56582;BME280;42463;52.214;21.238;2023-02-20T11:48:12;99456.64;;;3.03;76.35
56582;BME280;42463;52.214;21.238;2023-02-20T11:50:57;99483.65;;;3.05;76.82
56582;BME280;42463;52.214;21.238;2023-02-20T11:53:42;99475.64;;;3.06;76.92
56582;BME280;42463;52.214;21.238;2023-02-20T11:56:18;99443.91;;;3.11;77.10
56582;BME280;42463;52.214;21.238;2023-02-20T11:59:27;99420.59;;;3.17;77.15
56582;BME280;42463;52.214;21.238;2023-02-20T12:02:29;99415.88;;;3.24;77.09
56582;BME280;42463;52.214;21.238;2023-02-20T12:05:15;99407.54;;;3.29;77.70
56582;BME280;42463;52.214;21.238;2023-02-20T12:08:00;99405.33;;;3.37;77.72
56582;BME280;42463;52.214;21.238;2023-02-20T12:10:42;99393.53;;;3.44;77.66
56582;BME280;42463;52.214;21.238;2023-02-20T12:13:19;99380.80;;;3.51;77.96
56582;BME280;42463;52.214;21.238;2023-02-20T12:19:18;99343.66;;;3.64;78.25
56582;BME280;42463;52.214;21.238;2023-02-20T12:22:14;99322.23;;;3.70;78.46
56582;BME280;42463;52.214;21.238;2023-02-20T12:25:15;99314.41;;;3.79;78.68
56582;BME280;42463;52.214;21.238;2023-02-20T12:28:11;99305.94;;;3.84;79.31
56582;BME280;42463;52.214;21.238;2023-02-20T12:31:09;99290.30;;;3.91;79.34
56582;BME280;42463;52.214;21.238;2023-02-20T12:34:19;99297.00;;;3.99;79.63
56582;BME280;42463;52.214;21.238;2023-02-20T12:37:14;99291.16;;;4.05;79.91
56582;BME280;42463;52.214;21.238;2023-02-20T12:40:18;99287.65;;;4.13;79.62
56582;BME280;42463;52.214;21.238;2023-02-20T12:43:07;99276.73;;;4.21;79.75
56582;BME280;42463;52.214;21.238;2023-02-20T12:46:00;99265.77;;;4.27;79.91
56582;BME280;42463;52.214;21.238;2023-02-20T12:49:14;99288.23;;;4.31;80.24
56582;BME280;42463;52.214;21.238;2023-02-20T12:52:15;99296.21;;;4.41;80.07
56582;BME280;42463;52.214;21.238;2023-02-20T12:55:14;99289.57;;;4.52;80.09
56582;BME280;42463;52.214;21.238;2023-02-20T12:58:14;99282.43;;;4.58;79.91
56582;BME280;42463;52.214;21.238;2023-02-20T13:01:04;99289.95;;;4.65;80.04
56582;BME280;42463;52.214;21.238;2023-02-20T13:03:59;99283.69;;;4.73;79.81
56582;BME280;42463;52.214;21.238;2023-02-20T13:06:44;99277.42;;;4.81;79.80
56582;BME280;42463;52.214;21.238;2023-02-20T13:09:34;99284.85;;;4.88;79.33
56582;BME280;42463;52.214;21.238;2023-02-20T13:12:21;99304.81;;;4.90;79.37
56582;BME280;42463;52.214;21.238;2023-02-20T13:14:57;99299.40;;;4.91;79.36
56582;BME280;42463;52.214;21.238;2023-02-20T13:17:32;99285.07;;;4.95;79.26
56582;BME280;42463;52.214;21.238;2023-02-20T13:20:08;99279.77;;;4.97;79.24
56582;BME280;42463;52.214;21.238;2023-02-20T13:22:33;99275.52;;;5.00;79.18
56582;BME280;42463;52.214;21.238;2023-02-20T13:25:36;99263.65;;;5.04;79.24
56582;BME280;42463;52.214;21.238;2023-02-20T13:28:21;99270.40;;;5.10;79.11
56582;BME280;42463;52.214;21.238;2023-02-20T13:31:06;99270.34;;;5.13;78.80
56582;BME280;42463;52.214;21.238;2023-02-20T13:33:35;99264.61;;;5.18;78.78
56582;BME280;42463;52.214;21.238;2023-02-20T13:36:00;99262.27;;;5.22;78.61
56582;BME280;42463;52.214;21.238;2023-02-20T13:38:28;99254.44;;;5.28;78.92
56582;BME280;42463;52.214;21.238;2023-02-20T13:41:08;99256.77;;;5.33;78.81
56582;BME280;42463;52.214;21.238;2023-02-20T13:43:45;99251.13;;;5.37;78.70
56582;BME280;42463;52.214;21.238;2023-02-20T13:46:56;99245.36;;;5.40;78.35
56582;BME280;42463;52.214;21.238;2023-02-20T13:49:56;99234.92;;;5.48;78.20
56582;BME280;42463;52.214;21.238;2023-02-20T13:52:43;99223.41;;;5.57;77.93
56582;BME280;42463;52.214;21.238;2023-02-20T13:55:29;99218.26;;;5.63;77.55
56582;BME280;42463;52.214;21.238;2023-02-20T13:58:15;99213.72;;;5.66;77.70
56582;BME280;42463;52.214;21.238;2023-02-20T14:01:01;99208.39;;;5.70;77.62
56582;BME280;42463;52.214;21.238;2023-02-20T14:04:00;99206.17;;;5.75;77.49
56582;BME280;42463;52.214;21.238;2023-02-20T14:06:51;99202.20;;;5.81;77.38
56582;BME280;42463;52.214;21.238;2023-02-20T14:09:36;99201.81;;;5.88;77.12